Goshen, New York
Current Conditions -  °F | °C
As of 2:54 PM on Friday 19 Dec 2014 (Local Time) from KMGJ Reporting Station
Broken Clouds Broken Clouds  
Wind Chill: -4°   Ceiling: 4800
Heat Index:   Visibility: 10mi
Dew Point: -6°   Wind: 12mph
Humidity: 61%   Direction: 310°NW
Pressure: 30.05"   Gusts: 22mph
Location:  41.41°N, 74.32°W
Report Text: KMGJ 191954Z AUTO 31010G19KT 10SM FEW034 BKN048 01/M06 A3005 RMK AO2 SLP179 T00061061 TSNO
Loading
Personal Weather Stations






























Interactive Weather Map New forecast layout! Learn more

10-Day Weather Forecast

Advertisements
Track Severe Weather on mobile